METAR Data
IDs: Format: Raw Decoded Include TAF

Data at: 2155 UTC 18 Apr 2021

KPLD 182155Z AUTO 34005KT 10SM SCT080 15/M05 A2987 RMK AO2